Time;durP1;ratioP1;P1;durP2;ratioP2;P2;SDS_P1;SDS_P2;PMS_P1;PMS_P2;Temp;Humidity;BMP_temperature;BMP_pressure;BME280_temperature;BME280_humidity;BME280_pressure;Samples;Min_cycle;Max_cycle;Signal;HPM_P1;HPM_P2
2020/12/03 00:00:03;;;;;;;91.00;39.10;;;;;;;-2.50;75.37;99117.77;1621725;88;21139;-65
2020/12/03 00:02:30;;;;;;;101.27;43.73;;;;;;;-2.81;76.21;99101.80;1600188;88;21125;-67
2020/12/03 00:04:57;;;;;;;103.07;43.87;;;;;;;-2.79;76.23;99095.19;1621781;88;21571;-64
2020/12/03 00:07:24;;;;;;;120.23;46.97;;;;;;;-2.78;76.33;99094.14;1621493;88;21135;-64
2020/12/03 00:09:51;;;;;;;102.93;44.70;;;;;;;-2.78;76.33;99094.66;1621835;88;21167;-66
2020/12/03 00:16:00;;;;;;;95.07;39.53;;;;;;;-2.65;75.99;99086.28;1621664;88;21667;-65
2020/12/03 00:18:30;;;;;;;63.13;26.33;;;;;;;-2.65;75.92;99088.42;1621826;88;21167;-63
2020/12/03 00:20:58;;;;;;;102.77;43.93;;;;;;;-2.73;76.33;99080.09;1621522;88;21552;-57
2020/12/03 00:23:25;;;;;;;94.63;41.63;;;;;;;-2.65;76.26;99088.42;1622135;88;21151;-67
2020/12/03 00:25:54;;;;;;;111.13;49.17;;;;;;;-2.59;76.18;99075.48;1621997;88;21150;-66
2020/12/03 00:28:30;;;;;;;111.53;49.13;;;;;;;-2.65;76.25;99070.36;1621780;88;21171;-64
2020/12/03 00:30:57;;;;;;;80.57;28.77;;;;;;;-2.68;76.28;99072.19;1621407;88;21604;-64
2020/12/03 00:33:24;;;;;;;99.03;39.03;;;;;;;-2.73;76.64;99072.94;1621985;88;21135;-64
2020/12/03 00:35:51;;;;;;;105.57;45.17;;;;;;;-3.12;77.77;99066.97;1621750;88;21187;-65
2020/12/03 00:38:19;;;;;;;109.80;45.30;;;;;;;-3.28;78.84;99067.03;1621776;88;21169;-66
2020/12/03 00:40:47;;;;;;;114.57;45.37;;;;;;;-3.41;79.34;99067.67;1621151;88;21149;-65
2020/12/03 00:43:15;;;;;;;103.43;41.53;;;;;;;-3.46;79.72;99062.84;1621036;88;21155;-67
2020/12/03 00:45:46;;;;;;;108.80;45.43;;;;;;;-3.42;79.68;99066.61;1620957;88;21620;-67
2020/12/03 00:48:14;;;;;;;88.80;41.97;;;;;;;-3.48;80.37;99053.80;1620963;88;21141;-66
2020/12/03 00:50:41;;;;;;;101.43;43.63;;;;;;;-3.33;79.98;99057.67;1620953;88;21581;-65
2020/12/03 00:53:08;;;;;;;82.87;32.83;;;;;;;-3.37;80.13;99050.74;1620963;88;21566;-62
2020/12/03 00:55:35;;;;;;;102.90;47.83;;;;;;;-3.48;80.12;99049.82;1621013;88;21129;-61
2020/12/03 00:58:03;;;;;;;106.67;41.37;;;;;;;-3.58;80.69;99047.58;1621017;88;21146;-64
2020/12/03 01:00:30;;;;;;;99.43;42.20;;;;;;;-3.60;80.65;99047.80;1620942;88;21299;-64
2020/12/03 01:02:57;;;;;;;99.93;42.47;;;;;;;-3.55;80.36;99047.08;1621247;88;21594;-66
2020/12/03 01:05:23;;;;;;;63.57;23.57;;;;;;;-3.48;80.32;99051.14;1620880;88;21542;-65
2020/12/03 01:07:50;;;;;;;101.60;43.83;;;;;;;-3.54;80.57;99037.56;1620938;88;21125;-66
2020/12/03 01:10:24;;;;;;;90.93;39.57;;;;;;;-3.54;80.63;99040.21;1620909;88;21133;-63
2020/12/03 01:12:51;;;;;;;103.07;42.70;;;;;;;-3.43;80.26;99031.34;1621120;88;21129;-67
2020/12/03 01:15:19;;;;;;;99.90;41.70;;;;;;;-3.32;79.88;99034.09;1621026;88;21181;-64
2020/12/03 01:17:45;;;;;;;104.30;42.57;;;;;;;-3.29;79.60;99025.11;1620934;88;21152;-65
2020/12/03 01:20:16;;;;;;;106.13;43.30;;;;;;;-3.25;79.33;99030.72;1620954;88;21151;-62
2020/12/03 01:22:43;;;;;;;107.50;44.20;;;;;;;-3.21;79.24;99031.31;1621201;88;21152;-64
2020/12/03 01:25:10;;;;;;;110.80;47.17;;;;;;;-3.16;78.84;99023.42;1621042;88;21159;-64
2020/12/03 01:27:39;;;;;;;94.90;39.83;;;;;;;-3.18;78.69;99017.55;1621423;88;21129;-64
2020/12/03 01:30:08;;;;;;;103.73;45.73;;;;;;;-3.17;78.34;99009.87;1620959;88;21156;-64
2020/12/03 01:32:35;;;;;;;105.37;44.50;;;;;;;-3.19;78.21;99023.12;1621110;88;21195;-64
2020/12/03 01:35:04;;;;;;;86.57;36.13;;;;;;;-3.23;78.16;99022.01;1620943;88;21155;-65
2020/12/03 01:37:31;;;;;;;106.10;44.37;;;;;;;-3.17;77.87;99007.73;1621008;88;21157;-65
2020/12/03 01:39:58;;;;;;;103.00;42.50;;;;;;;-3.21;77.99;99012.75;1619742;86;21187;-64
2020/12/03 01:43:33;;;;;;;90.50;36.37;;;;;;;-3.21;77.83;99000.00;1592299;89;21291;-65
2020/12/03 01:46:01;;;;;;;108.23;44.20;;;;;;;-3.24;77.58;98983.27;1618019;89;21149;-65
2020/12/03 01:48:53;;;;;;;96.37;37.80;;;;;;;-3.33;77.64;98968.84;1618401;89;21142;-64
2020/12/03 01:51:32;;;;;;;107.87;44.20;;;;;;;-3.31;77.39;98970.21;1618326;89;21203;-65
2020/12/03 01:54:03;;;;;;;121.73;48.20;;;;;;;-3.45;77.62;98962.38;1617618;88;21166;-65
2020/12/03 02:00:15;;;;;;;114.90;45.20;;;;;;;-3.45;77.87;98964.47;1618105;89;21110;-66
2020/12/03 02:02:47;;;;;;;121.63;50.13;;;;;;;-3.43;78.00;98967.70;1617384;89;21145;-66
2020/12/03 02:05:24;;;;;;;111.37;44.67;;;;;;;-3.41;78.22;98961.61;1618375;89;21159;-67
2020/12/03 02:07:51;;;;;;;125.47;49.77;;;;;;;-3.42;78.31;98963.20;1613360;89;21169;-65
2020/12/03 02:10:22;;;;;;;88.77;36.07;;;;;;;-3.39;78.46;98960.56;1617912;89;21190;-65
2020/12/03 02:16:35;;;;;;;111.10;47.97;;;;;;;-3.31;78.38;98970.73;1617950;89;21677;-65
2020/12/03 02:19:01;;;;;;;120.13;47.40;;;;;;;-3.26;78.05;98962.84;1618182;89;21125;-66
2020/12/03 02:21:28;;;;;;;100.97;44.37;;;;;;;-3.24;77.81;98958.06;1617968;89;21275;-66
2020/12/03 02:23:55;;;;;;;111.37;47.40;;;;;;;-3.20;77.72;98953.87;1617793;89;21565;-65
2020/12/03 02:26:22;;;;;;;106.80;45.53;;;;;;;-3.12;77.72;98945.46;1618270;89;21117;-66
2020/12/03 02:28:49;;;;;;;106.43;46.60;;;;;;;-3.10;77.63;98938.04;1618393;89;21117;-65
2020/12/03 02:31:17;;;;;;;114.93;47.90;;;;;;;-3.10;77.39;98932.21;1617979;89;21122;-65
2020/12/03 02:33:44;;;;;;;113.30;45.83;;;;;;;-3.12;77.21;98924.23;1592584;89;21110;-65
2020/12/03 02:36:13;;;;;;;113.60;44.37;;;;;;;-3.15;77.16;98920.77;1617925;89;21287;-66
2020/12/03 02:38:41;;;;;;;110.43;47.80;;;;;;;-3.20;77.16;98926.82;1617971;89;21619;-65
2020/12/03 02:41:08;;;;;;;109.50;47.63;;;;;;;-3.30;77.43;98932.56;1618197;88;21538;-65
2020/12/03 02:43:35;;;;;;;122.27;48.63;;;;;;;-3.31;77.43;98929.11;1618050;89;21146;-65
2020/12/03 02:46:03;;;;;;;97.33;39.43;;;;;;;-3.37;77.61;98923.45;1617898;89;21176;-62
2020/12/03 02:48:29;;;;;;;117.23;49.20;;;;;;;-3.58;77.75;98917.68;1618027;89;21192;-65
2020/12/03 02:50:57;;;;;;;88.63;35.53;;;;;;;-3.59;77.81;98912.90;1617964;89;21153;-62
2020/12/03 02:53:24;;;;;;;121.63;53.10;;;;;;;-3.58;77.50;98908.41;1618399;89;21121;-66
2020/12/03 02:55:51;;;;;;;119.53;47.83;;;;;;;-3.75;77.22;98905.83;1618094;89;21157;-64
2020/12/03 02:58:18;;;;;;;129.57;50.37;;;;;;;-3.92;77.08;98903.27;1617948;89;21189;-62
2020/12/03 03:00:45;;;;;;;103.33;43.00;;;;;;;-4.09;77.31;98901.22;1617960;89;21145;-62
2020/12/03 03:03:11;;;;;;;116.63;48.77;;;;;;;-4.16;77.23;98896.60;1617962;89;21137;-64
2020/12/03 03:05:38;;;;;;;105.60;43.03;;;;;;;-4.27;77.37;98906.78;1617922;89;21554;-62
2020/12/03 03:08:05;;;;;;;124.80;50.80;;;;;;;-4.29;77.41;98908.89;1617976;89;21511;-62
2020/12/03 03:10:32;;;;;;;119.10;48.47;;;;;;;-4.36;77.69;98910.92;1617915;89;21179;-62
2020/12/03 03:12:58;;;;;;;115.37;47.50;;;;;;;-4.34;77.63;98917.28;1618120;89;21134;-64
2020/12/03 03:15:25;;;;;;;116.63;50.27;;;;;;;-4.27;77.79;98929.30;1617988;89;21106;-61
2020/12/03 03:17:52;;;;;;;120.90;48.20;;;;;;;-4.20;77.77;98932.56;1618425;89;21530;-62
2020/12/03 03:20:19;;;;;;;113.13;49.03;;;;;;;-4.09;77.57;98925.06;1618151;89;21133;-62
2020/12/03 03:22:46;;;;;;;107.97;45.83;;;;;;;-4.08;77.35;98925.83;1618240;89;21113;-62
2020/12/03 03:25:13;;;;;;;101.20;41.27;;;;;;;-4.14;77.44;98928.95;1618044;89;21287;-63
2020/12/03 03:27:39;;;;;;;115.10;48.53;;;;;;;-4.11;77.29;98929.78;1617968;89;21121;-63
2020/12/03 03:30:07;;;;;;;117.00;45.43;;;;;;;-4.15;77.27;98940.58;1618347;89;21540;-63
2020/12/03 03:32:34;;;;;;;116.40;47.83;;;;;;;-4.16;77.25;98932.91;1618188;89;21169;-63
2020/12/03 03:35:03;;;;;;;127.30;50.97;;;;;;;-4.15;77.15;98934.48;1618308;89;21187;-63
2020/12/03 03:37:30;;;;;;;107.70;45.00;;;;;;;-4.13;77.04;98937.19;1618115;89;21114;-64
2020/12/03 03:39:57;;;;;;;112.47;45.77;;;;;;;-4.21;77.23;98934.15;1617893;88;21311;-62
2020/12/03 03:42:24;;;;;;;109.70;46.87;;;;;;;-4.35;77.61;98946.95;1617924;89;21267;-62
2020/12/03 03:44:51;;;;;;;117.43;45.63;;;;;;;-4.28;77.79;98938.83;1592250;89;21141;-61
2020/12/03 03:47:17;;;;;;;121.77;48.87;;;;;;;-4.20;77.78;98925.94;1618036;88;21097;-64
2020/12/03 03:49:44;;;;;;;120.17;47.70;;;;;;;-4.14;77.66;98906.96;1618538;89;21097;-63
2020/12/03 03:52:11;;;;;;;110.10;44.47;;;;;;;-4.43;78.07;98915.08;1617899;89;21556;-62
2020/12/03 03:54:38;;;;;;;77.90;29.20;;;;;;;-4.53;78.23;98900.35;1618205;89;21136;-59
2020/12/03 03:57:05;;;;;;;117.77;47.93;;;;;;;-4.69;78.67;98886.65;1618365;89;21140;-63
2020/12/03 03:59:32;;;;;;;96.20;37.03;;;;;;;-4.69;78.76;98889.81;1617989;89;21141;-61
2020/12/03 04:01:58;;;;;;;121.37;49.70;;;;;;;-4.80;79.57;98890.70;1618064;89;21133;-62
2020/12/03 04:04:25;;;;;;;110.93;47.80;;;;;;;-4.97;80.21;98883.58;1617976;89;21291;-62
2020/12/03 04:06:52;;;;;;;94.63;35.23;;;;;;;-4.80;79.84;98869.55;1618216;89;21133;-62
2020/12/03 04:09:19;;;;;;;122.40;47.90;;;;;;;-4.73;79.81;98870.17;1618272;89;21121;-62
2020/12/03 04:11:46;;;;;;;119.87;48.07;;;;;;;-4.65;79.66;98869.77;1618275;89;21291;-66
2020/12/03 04:14:15;;;;;;;114.43;43.03;;;;;;;-4.57;79.51;98862.19;1618419;89;21175;-65
2020/12/03 04:16:42;;;;;;;113.37;48.57;;;;;;;-4.41;78.93;98860.55;1617939;89;21172;-60
2020/12/03 04:19:08;;;;;;;136.13;54.47;;;;;;;-4.50;79.10;98858.84;1618227;89;21157;-62
2020/12/03 04:21:38;;;;;;;116.00;47.13;;;;;;;-4.61;79.58;98849.70;1618387;89;21101;-63
2020/12/03 04:24:05;;;;;;;107.73;38.57;;;;;;;-4.54;79.30;98850.33;1618205;89;21113;-63
2020/12/03 04:30:13;;;;;;;116.83;46.57;;;;;;;-4.80;80.17;98853.67;1618123;89;21109;-65
2020/12/03 04:32:40;;;;;;;99.90;38.93;;;;;;;-4.80;79.66;98846.54;1618256;89;21116;-63
2020/12/03 04:35:08;;;;;;;111.53;45.93;;;;;;;-4.85;79.67;98843.81;1618583;89;21143;-63
2020/12/03 04:37:35;;;;;;;111.67;43.70;;;;;;;-4.87;79.86;98843.23;1618125;89;21133;-63
2020/12/03 04:40:05;;;;;;;110.33;44.50;;;;;;;-4.87;79.95;98836.63;1618006;88;21676;-63
2020/12/03 04:46:40;;;;;;;120.20;48.60;;;;;;;-4.79;79.97;98821.66;1617976;89;21110;-63
2020/12/03 04:49:25;;;;;;;118.73;45.03;;;;;;;-4.74;79.77;98820.42;1618268;89;21307;-62
2020/12/03 04:52:34;;;;;;;106.20;42.73;;;;;;;-4.71;79.82;98825.22;1605993;89;21169;-62
2020/12/03 04:55:27;;;;;;;123.93;47.60;;;;;;;-4.71;80.02;98825.22;1618196;89;21187;-64
2020/12/03 04:58:25;;;;;;;105.87;42.80;;;;;;;-4.59;79.84;98831.20;1602241;89;21585;-63
2020/12/03 05:01:00;;;;;;;119.03;44.70;;;;;;;-4.50;79.83;98828.39;1590194;89;21592;-63
2020/12/03 05:03:48;;;;;;;113.47;47.27;;;;;;;-4.45;79.81;98828.47;1617975;89;21573;-61
2020/12/03 05:06:29;;;;;;;120.47;47.77;;;;;;;-4.40;79.80;98818.47;1618214;89;21593;-61
2020/12/03 05:09:10;;;;;;;129.10;49.23;;;;;;;-4.32;79.64;98819.37;1618442;89;21541;-61
2020/12/03 05:15:32;;;;;;;118.73;45.57;;;;;;;-4.27;79.71;98822.06;1618001;89;21816;-60
2020/12/03 05:18:26;;;;;;;116.37;48.73;;;;;;;-4.31;79.78;98828.12;1618371;89;21133;-61
2020/12/03 05:20:57;;;;;;;106.30;42.43;;;;;;;-4.25;79.48;98816.53;1618115;89;21556;-62
2020/12/03 05:23:30;;;;;;;109.13;42.90;;;;;;;-4.26;79.07;98806.98;1618064;89;21160;-65
2020/12/03 05:25:57;;;;;;;129.33;51.10;;;;;;;-4.36;78.96;98806.34;1617196;89;21127;-62
2020/12/03 05:32:06;;;;;;;126.00;47.20;;;;;;;-4.64;79.49;98798.05;1617929;89;21105;-60
2020/12/03 05:34:32;;;;;;;122.77;49.03;;;;;;;-4.81;79.89;98796.51;1592654;89;21564;-63
2020/12/03 05:37:06;;;;;;;120.53;48.00;;;;;;;-4.72;79.89;98790.53;1617922;89;21149;-60
2020/12/03 05:39:50;;;;;;;128.80;50.53;;;;;;;-4.62;79.81;98774.81;1573055;89;21113;-59
2020/12/03 05:42:25;;;;;;;127.27;50.63;;;;;;;-4.54;79.69;98770.41;1579884;89;21153;-59
2020/12/03 05:44:57;;;;;;;107.20;40.47;;;;;;;-4.45;79.37;98763.62;1616791;89;21134;-61
2020/12/03 05:47:35;;;;;;;;;;;;;;;-4.45;79.26;98752.23;1621361;89;21137;-61
2020/12/03 05:50:08;;;;;;;122.33;49.50;;;;;;;-4.52;79.34;98740.52;1618917;88;20182;-59
2020/12/03 05:52:35;;;;;;;110.37;41.50;;;;;;;-4.62;79.68;98748.34;1617921;89;21152;-61
2020/12/03 05:55:10;;;;;;;114.07;46.07;;;;;;;-4.66;79.71;98746.43;1618425;88;21141;-63
2020/12/03 05:57:43;;;;;;;100.13;40.43;;;;;;;-4.66;79.83;98756.50;1618789;88;21132;-66
2020/12/03 06:00:20;;;;;;;105.72;43.08;;;;;;;-4.77;79.93;98763.23;1618630;89;21125;-66
2020/12/03 06:03:08;;;;;;;103.43;41.77;;;;;;;-4.77;80.12;98768.52;1617998;89;21134;-65
2020/12/03 06:05:43;;;;;;;121.40;46.70;;;;;;;-4.72;80.05;98764.63;1617704;89;21659;-60
2020/12/03 06:08:21;;;;;;;111.43;44.23;;;;;;;-4.71;80.03;98764.88;1618509;89;21155;-65
2020/12/03 06:14:57;;;;;;;126.83;50.57;;;;;;;-4.80;81.01;98780.92;1618455;89;21126;-62
2020/12/03 06:17:33;;;;;;;143.53;55.33;;;;;;;-4.77;80.74;98773.30;1618609;89;21145;-62
2020/12/03 06:20:26;;;;;;;126.93;48.47;;;;;;;-4.74;80.81;98780.73;1592034;88;21293;-62
2020/12/03 06:23:20;;;;;;;131.63;52.37;;;;;;;-4.68;80.94;98766.52;1563930;92;21158;-65
2020/12/03 06:26:04;;;;;;;134.00;50.57;;;;;;;-4.65;80.96;98766.02;1563648;92;21194;-63
2020/12/03 06:32:39;;;;;;;126.70;53.57;;;;;;;-4.61;81.03;98763.70;1618249;89;21561;-64
2020/12/03 06:35:28;;;;;;;125.00;48.07;;;;;;;-4.55;81.12;98766.16;1617832;88;21134;-64
2020/12/03 06:38:04;;;;;;;116.37;45.30;;;;;;;-4.46;81.08;98759.36;1618575;88;21460;-64
2020/12/03 06:40:36;;;;;;;118.50;50.93;;;;;;;-4.41;81.12;98750.17;1618476;88;21227;-64
2020/12/03 06:43:11;;;;;;;130.95;53.30;;;;;;;-4.37;81.19;98748.34;1618527;89;21098;-65
2020/12/03 06:46:24;;;;;;;134.87;53.50;;;;;;;-4.52;81.77;98741.84;1618365;89;21558;-65
2020/12/03 06:49:02;;;;;;;128.80;52.43;;;;;;;-4.40;81.36;98726.63;1618626;89;21181;-64
2020/12/03 06:51:40;;;;;;;140.60;55.77;;;;;;;-4.29;81.17;98723.55;1591387;89;21113;-66
2020/12/03 06:54:31;;;;;;;128.13;51.57;;;;;;;-4.20;81.09;98724.69;1617882;88;21157;-63
2020/12/03 07:01:22;;;;;;;117.97;47.83;;;;;;;-4.14;80.74;98714.96;1618236;89;21133;-68
2020/12/03 07:04:25;;;;;;;145.63;54.07;;;;;;;-4.16;80.46;98725.02;1618247;89;21145;-68
2020/12/03 07:06:58;;;;;;;;;;;;;;;-4.04;80.69;98714.52;1603712;89;21125;-67
2020/12/03 07:09:59;;;;;;;125.23;50.83;;;;;;;-3.96;80.43;98711.42;1618477;89;20153;-67
2020/12/03 07:13:01;;;;;;;138.13;56.33;;;;;;;-3.90;80.45;98703.78;1578066;89;21212;-66
2020/12/03 07:16:06;;;;;;;131.15;52.70;;;;;;;-3.79;79.94;98678.71;1618051;89;21568;-67
2020/12/03 07:19:00;;;;;;;130.00;52.13;;;;;;;-3.75;79.48;98674.50;1617772;88;21165;-66
2020/12/03 07:21:51;;;;;;;108.30;44.87;;;;;;;-3.64;79.17;98686.77;1618421;89;21149;-66
2020/12/03 07:24:29;;;;;;;118.57;50.63;;;;;;;-3.65;79.29;98692.59;1594324;89;21157;-66
2020/12/03 07:30:58;;;;;;;118.43;49.43;;;;;;;-3.12;78.98;98693.45;1618228;89;21260;-65
2020/12/03 07:34:00;;;;;;;129.17;57.53;;;;;;;-2.87;78.68;98696.22;1618391;88;21133;-63
2020/12/03 07:36:50;;;;;;;130.63;56.00;;;;;;;-2.70;78.45;98702.67;1618291;89;21121;-64
2020/12/03 07:39:19;;;;;;;122.53;50.70;;;;;;;-2.60;78.44;98689.42;1618480;89;21168;-66
2020/12/03 07:41:55;;;;;;;123.20;52.77;;;;;;;-2.53;78.30;98697.41;1593084;89;21178;-66
2020/12/03 07:44:30;;;;;;;117.13;52.27;;;;;;;-2.39;78.32;98699.03;1607884;88;21136;-64
2020/12/03 07:47:31;;;;;;;120.03;51.13;;;;;;;-2.35;78.25;98702.76;1586448;89;21285;-61
2020/12/03 07:50:01;;;;;;;116.37;51.57;;;;;;;-2.32;78.18;98689.47;1606856;89;21196;-66
2020/12/03 07:52:32;;;;;;;121.43;53.50;;;;;;;-2.33;78.07;98701.18;1606474;89;21188;-64
2020/12/03 07:55:24;;;;;;;127.53;52.43;;;;;;;-2.34;78.05;98707.02;1606922;89;21265;-67
2020/12/03 07:57:56;;;;;;;110.42;50.05;;;;;;;-2.33;77.83;98701.98;1606625;89;21197;-68
2020/12/03 08:00:46;;;;;;;113.30;49.20;;;;;;;-2.32;77.59;98694.26;1606674;89;21153;-69
2020/12/03 08:03:40;;;;;;;113.20;51.47;;;;;;;-2.28;77.46;98690.02;1606961;89;21703;-64
2020/12/03 08:06:30;;;;;;;110.83;48.10;;;;;;;-2.24;77.28;98699.59;1606589;89;21628;-62
2020/12/03 08:09:05;;;;;;;106.47;48.57;;;;;;;-2.18;77.02;98693.24;1606457;89;21617;-64
2020/12/03 08:15:04;;;;;;;108.97;45.90;;;;;;;-2.22;76.64;98672.25;1606602;89;21125;-65
2020/12/03 08:17:34;;;;;;;110.60;47.73;;;;;;;-2.22;76.44;98676.23;1606856;89;21293;-64
2020/12/03 08:20:11;;;;;;;105.43;44.93;;;;;;;-2.20;76.39;98673.56;1606613;89;21756;-64
2020/12/03 08:22:43;;;;;;;99.17;43.97;;;;;;;-2.19;76.40;98676.50;1606223;89;21149;-69
2020/12/03 08:25:20;;;;;;;97.75;42.45;;;;;;;-2.15;76.25;98668.27;1559143;91;21323;-64
2020/12/03 08:31:29;;;;;;;94.53;40.03;;;;;;;-2.17;76.11;98670.91;1557034;92;21313;-65
2020/12/03 08:33:55;;;;;;;92.50;42.83;;;;;;;-2.11;76.04;98660.56;1557157;92;21156;-64
2020/12/03 08:36:23;;;;;;;88.83;41.27;;;;;;;-2.04;75.88;98668.55;1557306;92;21200;-64
2020/12/03 08:38:54;;;;;;;100.13;43.30;;;;;;;-2.04;75.67;98659.24;1557428;92;21149;-65
2020/12/03 08:41:26;;;;;;;94.35;45.90;;;;;;;-2.03;75.71;98660.05;1559336;91;21583;-64
2020/12/03 08:47:46;;;;;;;84.30;38.40;;;;;;;-2.05;75.12;98662.95;1568361;91;21165;-60
2020/12/03 08:50:15;;;;;;;90.10;39.30;;;;;;;-2.21;75.03;98655.25;1568488;91;21817;-65
2020/12/03 08:52:43;;;;;;;92.83;40.30;;;;;;;-2.05;75.15;98657.64;1567063;91;21611;-64
2020/12/03 08:55:11;;;;;;;86.67;38.87;;;;;;;-1.82;75.17;98649.67;1548257;91;21183;-62
2020/12/03 08:57:44;;;;;;;90.07;37.93;;;;;;;-1.58;74.87;98649.92;1567851;91;21814;-60
2020/12/03 09:00:16;;;;;;;74.23;34.63;;;;;;;-1.35;74.51;98642.66;1567985;91;21227;-62
2020/12/03 09:02:43;;;;;;;86.08;37.50;;;;;;;-1.06;73.81;98650.84;1576353;88;21157;-62
2020/12/03 09:05:11;;;;;;;86.57;37.13;;;;;;;-0.79;73.82;98632.64;1621729;88;21123;-64
2020/12/03 09:07:49;;;;;;;76.30;36.07;;;;;;;-0.41;72.66;98623.64;1621907;88;21207;-66
2020/12/03 09:10:16;;;;;;;65.40;31.40;;;;;;;-0.31;71.95;98624.89;1621960;88;21189;-60
2020/12/03 09:12:46;;;;;;;68.80;30.57;;;;;;;-0.40;71.32;98614.02;1599751;88;21288;-63
2020/12/03 09:15:15;;;;;;;72.57;33.43;;;;;;;-0.27;70.92;98608.08;1621471;88;21557;-66
2020/12/03 09:17:46;;;;;;;76.33;36.17;;;;;;;-0.15;70.41;98625.05;1579697;88;21271;-65
2020/12/03 09:20:13;;;;;;;73.43;32.77;;;;;;;-0.26;70.04;98625.64;1621687;88;21159;-65
2020/12/03 09:22:41;;;;;;;73.53;33.07;;;;;;;-0.02;70.00;98628.41;1599805;88;21105;-66
2020/12/03 09:25:09;;;;;;;58.20;27.30;;;;;;;0.16;69.18;98618.38;1622021;88;21153;-63
2020/12/03 09:27:46;;;;;;;69.10;34.73;;;;;;;0.25;68.80;98600.70;1621965;88;21137;-65
2020/12/03 09:30:25;;;;;;;63.83;31.37;;;;;;;0.28;68.52;98600.14;1621594;88;21576;-64
2020/12/03 09:33:03;;;;;;;62.57;29.37;;;;;;;0.46;68.73;98598.08;1621852;88;21141;-61
2020/12/03 09:35:32;;;;;;;69.27;35.27;;;;;;;0.47;67.44;98608.22;1621639;88;21627;-65
2020/12/03 09:38:02;;;;;;;68.73;30.60;;;;;;;0.70;67.99;98600.77;1621640;88;21569;-64
2020/12/03 09:40:29;;;;;;;67.70;31.97;;;;;;;0.86;67.37;98604.06;1621026;88;21160;-64
2020/12/03 09:42:57;;;;;;;62.47;30.67;;;;;;;0.95;66.58;98603.14;1619476;88;21162;-62
2020/12/03 09:45:31;;;;;;;65.13;32.53;;;;;;;1.00;66.12;98596.15;1618744;89;21267;-63
2020/12/03 09:47:55;;;;;;;69.83;31.73;;;;;;;0.91;65.83;98603.98;1617856;89;21424;-66
2020/12/03 09:50:22;;;;;;;61.60;26.37;;;;;;;0.79;65.55;98600.92;1574345;89;21192;-64
2020/12/03 09:52:49;;;;;;;61.73;31.20;;;;;;;0.53;65.65;98597.74;1618596;89;21675;-61
2020/12/03 09:55:16;;;;;;;68.97;32.70;;;;;;;0.46;66.16;98600.75;1595244;89;21608;-66
2020/12/03 09:57:55;;;;;;;67.07;32.50;;;;;;;0.38;66.42;98601.36;1618624;89;21180;-68
2020/12/03 10:00:28;;;;;;;62.67;29.73;;;;;;;0.35;66.59;98585.92;1618079;89;21161;-66
2020/12/03 10:03:06;;;;;;;68.07;31.73;;;;;;;0.38;66.63;98587.22;1618450;88;21562;-68
2020/12/03 10:06:13;;;;;;;72.53;33.57;;;;;;;0.47;66.41;98585.54;1617736;89;21137;-70
2020/12/03 10:09:14;;;;;;;66.57;33.10;;;;;;;0.55;66.10;98584.13;1617972;89;21125;-67
2020/12/03 10:12:05;;;;;;;64.27;31.43;;;;;;;0.59;66.35;98569.14;1563894;92;21191;-69
2020/12/03 10:14:42;;;;;;;64.20;32.07;;;;;;;0.71;66.32;98557.53;1618444;89;21191;-71
2020/12/03 10:17:17;;;;;;;70.03;33.27;;;;;;;0.79;66.21;98567.02;1595049;89;21562;-68
2020/12/03 10:19:46;;;;;;;62.13;31.17;;;;;;;0.88;65.70;98551.97;1618686;88;21121;-68
2020/12/03 10:22:28;;;;;;;62.23;30.13;;;;;;;0.89;65.67;98562.11;1619014;89;21544;-69
2020/12/03 10:25:20;;;;;;;66.02;31.55;;;;;;;0.98;65.89;98560.37;1618520;89;21667;-69
2020/12/03 10:31:30;;;;;;;65.57;31.67;;;;;;;1.57;66.03;98559.03;1618506;89;21265;-63
2020/12/03 10:33:56;;;;;;;66.70;31.23;;;;;;;1.84;65.83;98544.40;1618703;89;21549;-66
2020/12/03 10:36:50;;;;;;;73.50;34.53;;;;;;;1.77;65.24;98552.80;1594900;89;21247;-68
2020/12/03 10:39:18;;;;;;;74.80;34.50;;;;;;;1.81;65.41;98547.66;1618696;89;21195;-67
2020/12/03 10:41:50;;;;;;;70.27;35.27;;;;;;;1.93;65.67;98546.13;1618560;86;21137;-68
2020/12/03 10:47:50;;;;;;;68.87;32.77;;;;;;;2.27;66.30;98549.02;1618234;89;20165;-68
2020/12/03 10:50:18;;;;;;;72.80;34.93;;;;;;;2.26;65.84;98541.53;1618002;89;21336;-68
2020/12/03 10:52:45;;;;;;;75.00;38.67;;;;;;;1.92;64.41;98544.53;1618066;89;21164;-69
2020/12/03 10:55:17;;;;;;;71.37;35.10;;;;;;;2.00;65.72;98538.25;1618024;89;21150;-60
2020/12/03 10:57:56;;;;;;;76.02;35.88;;;;;;;2.03;65.75;98545.15;1618022;89;21285;-68
2020/12/03 11:00:20;;;;;;;64.40;32.83;;;;;;;1.86;65.70;98537.70;1617175;89;21302;-69
2020/12/03 11:02:47;;;;;;;75.63;35.67;;;;;;;1.87;66.12;98533.14;1618107;89;21149;-75
2020/12/03 11:05:16;;;;;;;69.50;34.63;;;;;;;1.88;66.21;98510.10;1618227;89;21251;-74
2020/12/03 11:07:52;;;;;;;76.50;35.93;;;;;;;1.89;66.22;98519.72;1618313;89;21191;-79
2020/12/03 11:10:19;;;;;;;74.33;35.27;;;;;;;1.87;66.26;98506.41;1618127;89;21161;-67
2020/12/03 11:19:36;;;;;;;74.17;34.70;;;;;;;1.75;66.31;98518.90;1618127;89;21214;-71
2020/12/03 11:22:24;;;;;;;79.00;35.30;;;;;;;1.83;66.24;98536.15;1592845;89;21577;-70
2020/12/03 11:24:59;;;;;;;79.03;37.13;;;;;;;1.79;66.21;98527.92;1577528;89;21184;-67
2020/12/03 11:27:28;;;;;;;69.17;34.60;;;;;;;1.78;66.15;98515.63;1618054;89;21164;-71
2020/12/03 11:29:55;;;;;;;79.50;36.60;;;;;;;1.82;66.12;98508.61;1592911;89;21272;-74
2020/12/03 11:32:25;;;;;;;73.17;35.17;;;;;;;1.86;66.18;98508.28;1618069;89;21129;-71
2020/12/03 11:34:53;;;;;;;79.67;36.77;;;;;;;1.93;66.19;98513.23;1617244;89;21134;-70
2020/12/03 11:37:23;;;;;;;77.30;35.27;;;;;;;2.01;66.10;98505.08;1618136;89;21109;-71
2020/12/03 11:39:51;;;;;;;76.80;37.27;;;;;;;2.11;65.92;98508.36;1618480;89;21126;-72
2020/12/03 11:48:01;;;;;;;64.53;34.03;;;;;;;2.22;66.00;98473.64;1594056;89;21159;-68
2020/12/03 11:50:17;;;;;;;70.13;35.97;;;;;;;2.25;65.86;98476.28;1593447;89;21188;-68
2020/12/03 11:52:44;;;;;;;76.00;37.93;;;;;;;2.36;65.84;98477.10;1594309;89;21160;-69
2020/12/03 11:55:23;;;;;;;71.30;35.53;;;;;;;2.53;65.77;98470.36;1593832;89;21741;-73
2020/12/03 11:57:50;;;;;;;73.87;37.40;;;;;;;2.67;65.73;98471.92;1593725;89;21199;-70
2020/12/03 12:00:20;;;;;;;71.80;37.53;;;;;;;2.75;65.54;98457.04;1593520;90;21168;-66
2020/12/03 12:02:52;;;;;;;77.70;36.87;;;;;;;2.79;65.41;98445.43;1593412;89;21180;-66
2020/12/03 12:05:47;;;;;;;72.17;35.43;;;;;;;2.80;64.75;98448.91;1594044;90;21183;-68
2020/12/03 12:17:03;;;;;;;72.67;34.67;;;;;;;3.02;64.93;98450.82;1593908;90;21143;-74
2020/12/03 12:19:30;;;;;;;74.53;36.87;;;;;;;2.98;65.02;98441.80;1593336;90;21195;-71
2020/12/03 12:21:58;;;;;;;69.30;35.10;;;;;;;3.01;64.95;98451.37;1570804;90;21171;-67
2020/12/03 12:24:26;;;;;;;76.37;35.10;;;;;;;3.04;64.93;98445.40;1591012;89;21181;-73
2020/12/03 12:26:54;;;;;;;79.37;37.13;;;;;;;3.12;64.90;98451.38;1593704;89;21880;-73
2020/12/03 12:33:04;;;;;;;69.07;32.43;;;;;;;3.16;64.84;98448.88;1593625;90;21152;-66
2020/12/03 12:35:34;;;;;;;70.77;35.10;;;;;;;2.97;64.85;98442.34;1593619;89;21585;-74
2020/12/03 12:38:01;;;;;;;68.40;34.90;;;;;;;3.01;64.79;98436.63;1593760;90;21129;-66
2020/12/03 12:40:28;;;;;;;64.80;34.53;;;;;;;3.02;64.87;98427.51;1593838;90;21171;-73
2020/12/03 12:42:55;;;;;;;70.40;36.43;;;;;;;3.08;64.89;98424.15;1602566;88;21578;-74
2020/12/03 12:49:04;;;;;;;72.23;36.13;;;;;;;3.21;64.79;98416.62;1620476;88;21234;-76
2020/12/03 12:51:31;;;;;;;78.50;38.27;;;;;;;3.13;64.75;98409.30;1620318;88;21611;-66
2020/12/03 12:53:58;;;;;;;75.77;38.30;;;;;;;3.01;64.84;98410.38;1620123;88;21488;-72
2020/12/03 12:56:25;;;;;;;76.67;37.57;;;;;;;3.02;64.98;98411.98;1620483;88;21562;-66
2020/12/03 13:02:55;;;;;;;71.10;36.43;;;;;;;2.95;65.00;98396.88;1620066;88;21137;-69
2020/12/03 13:05:21;;;;;;;69.83;35.23;;;;;;;2.94;64.94;98385.37;1513213;95;21223;-70
2020/12/03 13:07:48;;;;;;;75.83;35.97;;;;;;;2.86;64.95;98372.70;1513817;94;21662;-68
2020/12/03 13:10:17;;;;;;;76.13;36.60;;;;;;;2.85;65.02;98373.23;1514071;95;21591;-70
2020/12/03 13:12:45;;;;;;;75.80;37.13;;;;;;;2.86;65.10;98368.67;1514187;95;21215;-66